createdAt,value
2019-02-26T00:00:42.291Z,7.13
2019-02-26T00:05:49.851Z,8.60
2019-02-26T00:10:56.717Z,6.83
2019-02-26T00:16:03.147Z,7.13
2019-02-26T00:21:07.228Z,10.67
2019-02-26T00:26:13.211Z,8.33
2019-02-26T00:31:21.521Z,11.93
2019-02-26T00:36:27.113Z,10.93
2019-02-26T00:41:35.673Z,9.93
2019-02-26T00:46:40.543Z,10.33
2019-02-26T00:51:47.878Z,9.27
2019-02-26T00:56:52.806Z,9.47
2019-02-26T01:01:59.366Z,6.83
2019-02-26T01:07:05.827Z,6.80
2019-02-26T01:12:13.716Z,5.50
2019-02-26T01:17:18.971Z,6.37
2019-02-26T01:22:24.287Z,8.07
2019-02-26T01:27:29.587Z,11.50
2019-02-26T01:32:34.878Z,10.40
2019-02-26T01:37:40.211Z,7.17
2019-02-26T01:42:49.762Z,7.50
2019-02-26T01:47:52.775Z,8.00
2019-02-26T01:52:59.115Z,9.77
2019-02-26T01:58:05.053Z,7.27
2019-02-26T02:03:10.383Z,10.83
2019-02-26T02:08:17.795Z,14.37
2019-02-26T02:13:25.955Z,11.47
2019-02-26T02:18:29.959Z,14.40
2019-02-26T02:23:35.279Z,9.77
2019-02-26T02:28:40.586Z,8.90
2019-02-26T02:33:45.944Z,10.57
2019-02-26T02:38:51.251Z,10.07
2019-02-26T02:43:56.569Z,5.20
2019-02-26T02:49:02.276Z,8.73
2019-02-26T02:54:12.126Z,10.73
2019-02-26T02:59:16.814Z,6.17
2019-02-26T03:04:22.791Z,12.93
2019-02-26T03:09:31.122Z,12.13
2019-02-26T03:14:39.185Z,10.33
2019-02-26T03:19:43.662Z,12.20
2019-02-26T03:24:51.368Z,12.93
2019-02-26T03:29:58.299Z,10.20
2019-02-26T03:35:07.124Z,11.77
2019-02-26T03:40:10.887Z,8.27
2019-02-26T03:45:16.285Z,9.80
2019-02-26T03:50:26.353Z,11.07
2019-02-26T03:55:30.995Z,8.87
2019-02-26T04:00:37.657Z,8.87
2019-02-26T04:05:42.431Z,10.37
2019-02-26T04:10:49.874Z,10.47
2019-02-26T04:15:57.092Z,12.70
2019-02-26T04:21:05.718Z,11.77
2019-02-26T04:26:29.143Z,10.40
2019-02-26T04:32:18.313Z,10.30
2019-02-26T04:38:01.074Z,9.70
2019-02-26T04:43:52.108Z,10.33
2019-02-26T04:48:57.499Z,10.67
2019-02-26T04:54:03.087Z,11.93
2019-02-26T04:59:09.949Z,10.50
2019-02-26T05:04:16.576Z,11.67
2019-02-26T05:09:22.617Z,12.37
2019-02-26T05:14:29.204Z,11.13
2019-02-26T05:19:36.458Z,12.27
2019-02-26T05:24:44.340Z,11.97
2019-02-26T05:29:51.742Z,9.80
2019-02-26T05:34:56.228Z,10.13
2019-02-26T05:40:01.714Z,11.83
2019-02-26T05:45:09.410Z,18.27
2019-02-26T05:50:16.731Z,13.03
2019-02-26T05:55:23.681Z,10.70
2019-02-26T06:00:33.092Z,12.73
2019-02-26T06:05:41.190Z,12.57
2019-02-26T06:10:44.640Z,14.23
2019-02-26T06:15:51.513Z,9.90
2019-02-26T06:20:58.618Z,8.97
2019-02-26T06:26:13.301Z,13.43
2019-02-26T06:31:17.472Z,23.07
2019-02-26T06:36:23.380Z,35.83
2019-02-26T06:41:29.915Z,54.70
2019-02-26T06:46:35.971Z,20.67
2019-02-26T06:51:42.997Z,15.53
2019-02-26T06:56:51.152Z,12.10
2019-02-26T07:01:57.033Z,18.20
2019-02-26T07:07:04.441Z,24.60
2019-02-26T07:12:09.891Z,18.13
2019-02-26T07:17:16.452Z,16.90
2019-02-26T07:22:22.117Z,12.80
2019-02-26T07:27:28.926Z,10.30
2019-02-26T07:32:36.080Z,8.20
2019-02-26T07:37:41.997Z,9.10
2019-02-26T07:42:49.285Z,3.13
2019-02-26T07:47:57.889Z,13.57
2019-02-26T07:53:02.126Z,13.70
2019-02-26T07:58:09.160Z,12.83
2019-02-26T08:03:16.886Z,13.03
2019-02-26T08:08:22.521Z,13.70
2019-02-26T08:13:29.715Z,12.33
2019-02-26T08:18:35.559Z,9.90
2019-02-26T08:23:41.754Z,9.73
2019-02-26T08:28:48.603Z,14.93
2019-02-26T08:33:54.150Z,11.73
2019-02-26T08:39:00.083Z,11.33
2019-02-26T08:44:05.955Z,15.83
2019-02-26T08:49:13.280Z,11.27
2019-02-26T08:54:21.144Z,12.37
2019-02-26T08:59:26.019Z,9.17
2019-02-26T09:04:31.619Z,12.70
2019-02-26T09:09:37.135Z,9.47
2019-02-26T09:14:45.018Z,12.53
2019-02-26T09:19:52.279Z,10.67
2019-02-26T09:24:59.359Z,8.60
2019-02-26T09:30:08.445Z,9.90
2019-02-26T09:35:16.898Z,9.70
2019-02-26T09:40:26.597Z,9.10
2019-02-26T09:45:30.414Z,12.53
2019-02-26T09:50:38.491Z,10.60
2019-02-26T09:55:44.963Z,11.63
2019-02-26T10:00:51.777Z,8.70
2019-02-26T10:05:58.102Z,9.47
2019-02-26T10:11:04.861Z,11.80
2019-02-26T10:16:10.959Z,9.07
2019-02-26T10:21:18.285Z,10.60
2019-02-26T10:26:26.412Z,10.67
2019-02-26T10:31:32.898Z,8.10
2019-02-26T10:36:43.085Z,10.40
2019-02-26T10:41:46.747Z,9.17
2019-02-26T10:46:52.439Z,7.07
2019-02-26T10:51:58.628Z,7.00
2019-02-26T10:57:07.679Z,13.27
2019-02-26T11:02:11.634Z,11.43
2019-02-26T11:07:17.417Z,7.13
2019-02-26T11:12:25.187Z,9.47
2019-02-26T11:17:31.617Z,11.07
2019-02-26T11:22:41.631Z,12.10
2019-02-26T11:27:45.979Z,8.73
2019-02-26T11:32:56.166Z,8.73
2019-02-26T11:37:59.473Z,7.90
2019-02-26T11:43:11.600Z,7.97
2019-02-26T11:48:14.019Z,9.60
2019-02-26T11:53:19.988Z,11.73
2019-02-26T11:58:27.031Z,9.90
2019-02-26T12:03:34.076Z,9.30
2019-02-26T12:08:43.122Z,13.57
2019-02-26T12:13:50.227Z,8.60
2019-02-26T12:18:58.780Z,9.93
2019-02-26T12:24:06.563Z,9.80
2019-02-26T12:29:12.412Z,7.77
2019-02-26T12:34:20.768Z,7.97
2019-02-26T12:39:29.144Z,7.67
2019-02-26T12:44:35.537Z,8.60
2019-02-26T12:49:45.063Z,7.67
2019-02-26T12:54:49.986Z,5.87
2019-02-26T12:59:56.397Z,8.40
2019-02-26T13:05:02.619Z,5.93
2019-02-26T13:10:12.687Z,9.20
2019-02-26T13:15:19.466Z,6.13
2019-02-26T13:20:25.480Z,6.10
2019-02-26T13:25:31.071Z,7.87
2019-02-26T13:30:37.472Z,6.73
2019-02-26T13:35:46.734Z,8.47
2019-02-26T13:40:50.406Z,6.77
2019-02-26T13:45:56.686Z,6.00
2019-02-26T13:51:02.655Z,8.17
2019-02-26T13:56:08.741Z,6.43
2019-02-26T14:01:15.411Z,6.77
2019-02-26T14:06:20.945Z,5.93
2019-02-26T14:11:27.403Z,7.83
2019-02-26T14:16:33.775Z,6.67
2019-02-26T14:21:39.279Z,8.30
2019-02-26T14:26:45.633Z,7.53
2019-02-26T14:31:51.189Z,7.70
2019-02-26T14:36:57.362Z,6.67
2019-02-26T14:42:03.219Z,7.13
2019-02-26T14:47:09.003Z,6.43
2019-02-26T14:52:15.601Z,7.50
2019-02-26T14:57:22.168Z,6.83
2019-02-26T15:02:27.963Z,8.17
2019-02-26T15:07:34.076Z,7.23
2019-02-26T15:12:40.449Z,7.50
2019-02-26T15:17:46.425Z,7.30
2019-02-26T15:22:52.378Z,7.30
2019-02-26T15:28:05.037Z,8.97
2019-02-26T15:33:11.093Z,10.60
2019-02-26T15:38:14.323Z,9.50
2019-02-26T15:43:20.031Z,8.83
2019-02-26T15:48:26.090Z,6.83
2019-02-26T15:53:31.684Z,10.07
2019-02-26T15:58:37.595Z,9.23
2019-02-26T16:03:44.046Z,8.70
2019-02-26T16:08:49.830Z,7.23
2019-02-26T16:13:55.537Z,10.97
2019-02-26T16:19:01.386Z,7.97
2019-02-26T16:24:08.180Z,13.10
2019-02-26T16:29:13.818Z,13.27
2019-02-26T16:34:20.528Z,12.47
2019-02-26T16:39:26.642Z,10.17
2019-02-26T16:44:32.707Z,9.40
2019-02-26T16:49:39.229Z,15.07
2019-02-26T16:54:45.151Z,13.80
2019-02-26T16:59:50.860Z,18.47
2019-02-26T17:04:56.854Z,14.30
2019-02-26T17:10:02.463Z,17.30
2019-02-26T17:15:13.230Z,23.83
2019-02-26T17:20:22.448Z,38.57
2019-02-26T17:25:29.226Z,30.83
2019-02-26T17:30:35.441Z,28.33
2019-02-26T17:35:41.458Z,24.97
2019-02-26T17:40:47.967Z,23.57
2019-02-26T17:45:54.322Z,30.10
2019-02-26T17:51:00.115Z,30.33
2019-02-26T17:56:06.164Z,20.13
2019-02-26T18:01:12.065Z,20.97
2019-02-26T18:06:17.795Z,22.73
2019-02-26T18:11:24.217Z,20.77
2019-02-26T18:16:31.745Z,17.93
2019-02-26T18:21:36.988Z,20.03
2019-02-26T18:26:42.482Z,16.63
2019-02-26T18:31:49.928Z,18.10
2019-02-26T18:36:55.319Z,15.03
2019-02-26T18:42:00.704Z,15.27
2019-02-26T18:47:07.101Z,51.07
2019-02-26T18:52:13.391Z,58.03
2019-02-26T18:57:18.679Z,66.30
2019-02-26T19:02:24.108Z,63.70
2019-02-26T19:07:32.973Z,68.00
2019-02-26T19:12:36.694Z,36.40
2019-02-26T19:17:43.733Z,30.57
2019-02-26T19:22:49.336Z,18.07
2019-02-26T19:27:54.970Z,11.53
2019-02-26T19:33:00.601Z,15.27
2019-02-26T19:38:06.229Z,6.73
2019-02-26T19:43:11.823Z,7.03
2019-02-26T19:48:17.395Z,17.97
2019-02-26T19:53:22.987Z,20.00
2019-02-26T19:58:28.572Z,16.27
2019-02-26T20:03:40.030Z,10.17
2019-02-26T20:08:41.380Z,6.80
2019-02-26T20:13:46.924Z,7.27
2019-02-26T20:18:52.555Z,14.00
2019-02-26T20:23:58.238Z,16.20
2019-02-26T20:29:07.599Z,14.50
2019-02-26T20:34:11.705Z,8.70
2019-02-26T20:39:19.238Z,8.97
2019-02-26T20:44:24.597Z,13.20
2019-02-26T20:49:29.929Z,12.93
2019-02-26T20:54:35.308Z,10.87
2019-02-26T20:59:40.972Z,11.47
2019-02-26T21:04:46.585Z,12.43
2019-02-26T21:09:52.279Z,10.37
2019-02-26T21:14:57.677Z,10.07
2019-02-26T21:20:07.567Z,11.77
2019-02-26T21:25:11.481Z,10.37
2019-02-26T21:30:17.944Z,6.47
2019-02-26T21:35:23.517Z,7.40
2019-02-26T21:40:29.218Z,8.73
2019-02-26T21:45:34.538Z,6.60
2019-02-26T21:50:40.246Z,7.67
2019-02-26T21:55:45.929Z,6.77
2019-02-26T22:00:51.432Z,8.33
2019-02-26T22:06:05.026Z,8.70
2019-02-26T22:11:04.696Z,9.63
2019-02-26T22:16:12.271Z,6.87
2019-02-26T22:21:19.707Z,9.73
2019-02-26T22:26:26.626Z,7.30
2019-02-26T22:31:33.657Z,7.70
2019-02-26T22:36:40.488Z,8.07
2019-02-26T22:41:46.556Z,6.13
2019-02-26T22:46:52.546Z,8.80
2019-02-26T22:51:59.183Z,5.33
2019-02-26T22:57:05.648Z,5.53
2019-02-26T23:02:12.983Z,7.30
2019-02-26T23:07:19.200Z,7.53
2019-02-26T23:12:25.237Z,5.40
2019-02-26T23:17:30.692Z,6.20
2019-02-26T23:22:36.304Z,6.33
2019-02-26T23:27:46.148Z,6.30
2019-02-26T23:32:50.859Z,5.73
2019-02-26T23:37:56.832Z,7.27
2019-02-26T23:43:03.131Z,4.70
2019-02-26T23:48:08.704Z,6.97
2019-02-26T23:53:15.349Z,6.07
2019-02-26T23:58:20.631Z,7.53
